sensor_id;sensor_type;location;lat;lon;timestamp;P1;durP1;ratioP1;P2;durP2;ratioP2
67721;SDS011;58309;45.292;11.820;2022-11-21T00:00:37;40.00;;;25.88;;
67721;SDS011;58309;45.292;11.820;2022-11-21T00:03:04;40.17;;;25.88;;
67721;SDS011;58309;45.292;11.820;2022-11-21T00:05:30;39.92;;;25.77;;
67721;SDS011;58309;45.292;11.820;2022-11-21T00:07:56;39.13;;;25.92;;
67721;SDS011;58309;45.292;11.820;2022-11-21T00:10:22;34.97;;;24.90;;
67721;SDS011;58309;45.292;11.820;2022-11-21T00:12:53;37.55;;;25.17;;
67721;SDS011;58309;45.292;11.820;2022-11-21T00:15:19;35.17;;;24.05;;
67721;SDS011;58309;45.292;11.820;2022-11-21T00:17:45;34.95;;;23.45;;
67721;SDS011;58309;45.292;11.820;2022-11-21T00:20:10;33.00;;;23.20;;
67721;SDS011;58309;45.292;11.820;2022-11-21T00:22:36;36.35;;;23.63;;
67721;SDS011;58309;45.292;11.820;2022-11-21T00:25:01;33.95;;;23.70;;
67721;SDS011;58309;45.292;11.820;2022-11-21T00:27:27;33.35;;;22.83;;
67721;SDS011;58309;45.292;11.820;2022-11-21T00:29:53;34.38;;;23.17;;
67721;SDS011;58309;45.292;11.820;2022-11-21T00:32:18;33.47;;;23.80;;
67721;SDS011;58309;45.292;11.820;2022-11-21T00:34:44;34.92;;;24.02;;
67721;SDS011;58309;45.292;11.820;2022-11-21T00:37:09;33.38;;;23.30;;
67721;SDS011;58309;45.292;11.820;2022-11-21T00:39:35;34.10;;;23.92;;
67721;SDS011;58309;45.292;11.820;2022-11-21T00:42:00;36.13;;;23.73;;
67721;SDS011;58309;45.292;11.820;2022-11-21T00:44:26;38.20;;;24.45;;
67721;SDS011;58309;45.292;11.820;2022-11-21T00:46:51;37.50;;;25.63;;
67721;SDS011;58309;45.292;11.820;2022-11-21T00:49:16;38.88;;;26.52;;
67721;SDS011;58309;45.292;11.820;2022-11-21T00:51:42;40.05;;;25.38;;
67721;SDS011;58309;45.292;11.820;2022-11-21T00:54:07;39.17;;;25.80;;
67721;SDS011;58309;45.292;11.820;2022-11-21T00:56:33;37.60;;;25.30;;
67721;SDS011;58309;45.292;11.820;2022-11-21T00:58:58;37.42;;;25.02;;
67721;SDS011;58309;45.292;11.820;2022-11-21T01:01:24;39.50;;;25.83;;
67721;SDS011;58309;45.292;11.820;2022-11-21T01:03:49;36.13;;;25.35;;
67721;SDS011;58309;45.292;11.820;2022-11-21T01:06:15;39.03;;;24.60;;
67721;SDS011;58309;45.292;11.820;2022-11-21T01:08:41;35.17;;;24.00;;
67721;SDS011;58309;45.292;11.820;2022-11-21T01:11:12;34.03;;;24.35;;
67721;SDS011;58309;45.292;11.820;2022-11-21T01:13:39;35.97;;;24.52;;
67721;SDS011;58309;45.292;11.820;2022-11-21T01:16:06;37.75;;;24.75;;
67721;SDS011;58309;45.292;11.820;2022-11-21T01:18:34;35.60;;;24.65;;
67721;SDS011;58309;45.292;11.820;2022-11-21T01:21:01;33.88;;;24.20;;
67721;SDS011;58309;45.292;11.820;2022-11-21T01:23:31;36.30;;;24.13;;
67721;SDS011;58309;45.292;11.820;2022-11-21T01:26:01;34.15;;;24.08;;
67721;SDS011;58309;45.292;11.820;2022-11-21T01:28:27;37.20;;;24.92;;
67721;SDS011;58309;45.292;11.820;2022-11-21T01:30:53;31.25;;;23.02;;
67721;SDS011;58309;45.292;11.820;2022-11-21T01:33:18;33.35;;;23.58;;
67721;SDS011;58309;45.292;11.820;2022-11-21T01:35:44;33.33;;;23.48;;
67721;SDS011;58309;45.292;11.820;2022-11-21T01:38:09;35.47;;;23.30;;
67721;SDS011;58309;45.292;11.820;2022-11-21T01:40:38;32.22;;;22.83;;
67721;SDS011;58309;45.292;11.820;2022-11-21T01:43:11;31.38;;;21.95;;
67721;SDS011;58309;45.292;11.820;2022-11-21T01:45:48;34.45;;;23.08;;
67721;SDS011;58309;45.292;11.820;2022-11-21T01:53:35;31.80;;;21.95;;
67721;SDS011;58309;45.292;11.820;2022-11-21T01:56:03;30.23;;;21.70;;
67721;SDS011;58309;45.292;11.820;2022-11-21T01:58:30;31.98;;;22.20;;
67721;SDS011;58309;45.292;11.820;2022-11-21T02:00:59;30.00;;;21.83;;
67721;SDS011;58309;45.292;11.820;2022-11-21T02:03:25;31.83;;;20.92;;
67721;SDS011;58309;45.292;11.820;2022-11-21T02:05:55;30.08;;;20.90;;
67721;SDS011;58309;45.292;11.820;2022-11-21T02:08:21;28.58;;;21.13;;
67721;SDS011;58309;45.292;11.820;2022-11-21T02:13:47;30.23;;;21.40;;
67721;SDS011;58309;45.292;11.820;2022-11-21T02:16:12;30.20;;;21.00;;
67721;SDS011;58309;45.292;11.820;2022-11-21T02:18:38;27.75;;;20.77;;
67721;SDS011;58309;45.292;11.820;2022-11-21T02:21:06;27.23;;;20.92;;
67721;SDS011;58309;45.292;11.820;2022-11-21T02:26:11;29.52;;;21.88;;
67721;SDS011;58309;45.292;11.820;2022-11-21T02:28:37;32.90;;;21.35;;
67721;SDS011;58309;45.292;11.820;2022-11-21T02:31:03;30.63;;;21.50;;
67721;SDS011;58309;45.292;11.820;2022-11-21T02:33:28;33.80;;;23.00;;
67721;SDS011;58309;45.292;11.820;2022-11-21T02:35:57;34.25;;;22.23;;
67721;SDS011;58309;45.292;11.820;2022-11-21T02:38:31;33.50;;;22.15;;
67721;SDS011;58309;45.292;11.820;2022-11-21T02:41:04;33.15;;;20.65;;
67721;SDS011;58309;45.292;11.820;2022-11-21T02:43:41;29.70;;;20.77;;
67721;SDS011;58309;45.292;11.820;2022-11-21T02:46:14;40.40;;;21.67;;
67721;SDS011;58309;45.292;11.820;2022-11-21T02:48:40;28.35;;;21.30;;
67721;SDS011;58309;45.292;11.820;2022-11-21T02:51:05;34.17;;;23.27;;
67721;SDS011;58309;45.292;11.820;2022-11-21T02:53:31;32.08;;;22.10;;
67721;SDS011;58309;45.292;11.820;2022-11-21T02:55:56;35.63;;;23.40;;
67721;SDS011;58309;45.292;11.820;2022-11-21T02:58:22;33.95;;;22.45;;
67721;SDS011;58309;45.292;11.820;2022-11-21T03:00:47;30.48;;;22.02;;
67721;SDS011;58309;45.292;11.820;2022-11-21T03:03:13;29.90;;;20.50;;
67721;SDS011;58309;45.292;11.820;2022-11-21T03:05:38;33.60;;;21.38;;
67721;SDS011;58309;45.292;11.820;2022-11-21T03:08:04;30.80;;;21.02;;
67721;SDS011;58309;45.292;11.820;2022-11-21T03:10:30;31.05;;;22.13;;
67721;SDS011;58309;45.292;11.820;2022-11-21T03:12:56;30.42;;;21.27;;
67721;SDS011;58309;45.292;11.820;2022-11-21T03:15:28;33.38;;;22.15;;
67721;SDS011;58309;45.292;11.820;2022-11-21T03:17:56;28.67;;;20.85;;
67721;SDS011;58309;45.292;11.820;2022-11-21T03:20:21;31.00;;;22.42;;
67721;SDS011;58309;45.292;11.820;2022-11-21T03:22:47;32.00;;;22.23;;
67721;SDS011;58309;45.292;11.820;2022-11-21T03:25:13;34.03;;;23.13;;
67721;SDS011;58309;45.292;11.820;2022-11-21T03:27:39;33.53;;;24.00;;
67721;SDS011;58309;45.292;11.820;2022-11-21T03:30:04;34.13;;;23.20;;
67721;SDS011;58309;45.292;11.820;2022-11-21T03:32:30;32.40;;;22.63;;
67721;SDS011;58309;45.292;11.820;2022-11-21T03:34:56;33.92;;;22.05;;
67721;SDS011;58309;45.292;11.820;2022-11-21T03:37:21;32.17;;;21.75;;
67721;SDS011;58309;45.292;11.820;2022-11-21T03:39:47;34.20;;;22.88;;
67721;SDS011;58309;45.292;11.820;2022-11-21T03:42:12;36.25;;;23.13;;
67721;SDS011;58309;45.292;11.820;2022-11-21T03:44:38;32.30;;;22.05;;
67721;SDS011;58309;45.292;11.820;2022-11-21T03:47:03;31.83;;;22.25;;
67721;SDS011;58309;45.292;11.820;2022-11-21T03:49:29;35.88;;;23.83;;
67721;SDS011;58309;45.292;11.820;2022-11-21T03:51:54;35.22;;;22.55;;
67721;SDS011;58309;45.292;11.820;2022-11-21T03:54:20;33.30;;;23.48;;
67721;SDS011;58309;45.292;11.820;2022-11-21T03:56:45;34.95;;;23.00;;
67721;SDS011;58309;45.292;11.820;2022-11-21T03:59:11;32.40;;;23.00;;
67721;SDS011;58309;45.292;11.820;2022-11-21T04:01:36;30.60;;;22.23;;
67721;SDS011;58309;45.292;11.820;2022-11-21T04:04:01;34.60;;;23.73;;
67721;SDS011;58309;45.292;11.820;2022-11-21T04:06:27;36.60;;;24.67;;
67721;SDS011;58309;45.292;11.820;2022-11-21T04:08:55;35.47;;;25.00;;
67721;SDS011;58309;45.292;11.820;2022-11-21T04:11:20;35.95;;;24.60;;
67721;SDS011;58309;45.292;11.820;2022-11-21T04:13:47;37.20;;;24.13;;
67721;SDS011;58309;45.292;11.820;2022-11-21T04:16:13;38.42;;;24.60;;
67721;SDS011;58309;45.292;11.820;2022-11-21T04:18:38;41.33;;;24.15;;
67721;SDS011;58309;45.292;11.820;2022-11-21T04:21:05;36.45;;;23.60;;
67721;SDS011;58309;45.292;11.820;2022-11-21T04:23:32;33.67;;;23.50;;
67721;SDS011;58309;45.292;11.820;2022-11-21T04:25:57;30.40;;;22.08;;
67721;SDS011;58309;45.292;11.820;2022-11-21T04:28:23;33.63;;;21.75;;
67721;SDS011;58309;45.292;11.820;2022-11-21T04:30:49;34.00;;;21.23;;
67721;SDS011;58309;45.292;11.820;2022-11-21T04:33:15;67.40;;;33.88;;
67721;SDS011;58309;45.292;11.820;2022-11-21T04:35:43;55.38;;;28.90;;
67721;SDS011;58309;45.292;11.820;2022-11-21T04:38:10;44.22;;;25.27;;
67721;SDS011;58309;45.292;11.820;2022-11-21T04:40:36;32.75;;;22.13;;
67721;SDS011;58309;45.292;11.820;2022-11-21T04:43:01;33.72;;;22.05;;
67721;SDS011;58309;45.292;11.820;2022-11-21T04:45:27;32.25;;;21.77;;
67721;SDS011;58309;45.292;11.820;2022-11-21T04:47:53;30.30;;;21.02;;
67721;SDS011;58309;45.292;11.820;2022-11-21T04:50:18;32.72;;;22.60;;
67721;SDS011;58309;45.292;11.820;2022-11-21T04:52:51;33.05;;;21.73;;
67721;SDS011;58309;45.292;11.820;2022-11-21T04:55:17;34.03;;;22.40;;
67721;SDS011;58309;45.292;11.820;2022-11-21T04:57:43;31.58;;;22.38;;
67721;SDS011;58309;45.292;11.820;2022-11-21T05:00:09;34.55;;;23.13;;
67721;SDS011;58309;45.292;11.820;2022-11-21T05:02:35;36.22;;;22.85;;
67721;SDS011;58309;45.292;11.820;2022-11-21T05:05:01;35.97;;;23.55;;
67721;SDS011;58309;45.292;11.820;2022-11-21T05:07:26;39.67;;;25.00;;
67721;SDS011;58309;45.292;11.820;2022-11-21T05:09:52;40.17;;;24.90;;
67721;SDS011;58309;45.292;11.820;2022-11-21T05:12:17;36.97;;;23.40;;
67721;SDS011;58309;45.292;11.820;2022-11-21T05:15:01;36.88;;;23.27;;
67721;SDS011;58309;45.292;11.820;2022-11-21T05:17:27;35.03;;;23.83;;
67721;SDS011;58309;45.292;11.820;2022-11-21T05:19:53;33.88;;;23.23;;
67721;SDS011;58309;45.292;11.820;2022-11-21T05:22:19;31.15;;;21.52;;
67721;SDS011;58309;45.292;11.820;2022-11-21T05:24:45;32.47;;;21.38;;
67721;SDS011;58309;45.292;11.820;2022-11-21T05:27:10;28.73;;;20.30;;
67721;SDS011;58309;45.292;11.820;2022-11-21T05:29:36;27.35;;;19.00;;
67721;SDS011;58309;45.292;11.820;2022-11-21T05:32:01;28.05;;;20.25;;
67721;SDS011;58309;45.292;11.820;2022-11-21T05:34:27;27.20;;;18.70;;
67721;SDS011;58309;45.292;11.820;2022-11-21T05:36:52;23.50;;;17.33;;
67721;SDS011;58309;45.292;11.820;2022-11-21T05:41:48;22.42;;;16.85;;
67721;SDS011;58309;45.292;11.820;2022-11-21T05:44:14;28.10;;;18.10;;
67721;SDS011;58309;45.292;11.820;2022-11-21T05:46:39;30.45;;;20.33;;
67721;SDS011;58309;45.292;11.820;2022-11-21T05:49:05;26.75;;;18.80;;
67721;SDS011;58309;45.292;11.820;2022-11-21T05:51:30;31.73;;;20.90;;
67721;SDS011;58309;45.292;11.820;2022-11-21T05:53:56;31.52;;;19.88;;
67721;SDS011;58309;45.292;11.820;2022-11-21T05:56:21;31.35;;;20.98;;
67721;SDS011;58309;45.292;11.820;2022-11-21T05:58:47;34.03;;;22.60;;
67721;SDS011;58309;45.292;11.820;2022-11-21T06:01:14;36.78;;;22.70;;
67721;SDS011;58309;45.292;11.820;2022-11-21T06:03:40;36.67;;;21.63;;
67721;SDS011;58309;45.292;11.820;2022-11-21T06:11:03;36.33;;;21.95;;
67721;SDS011;58309;45.292;11.820;2022-11-21T06:13:29;46.95;;;24.42;;
67721;SDS011;58309;45.292;11.820;2022-11-21T06:18:26;43.10;;;25.48;;
67721;SDS011;58309;45.292;11.820;2022-11-21T06:20:52;46.55;;;25.63;;
67721;SDS011;58309;45.292;11.820;2022-11-21T06:23:18;55.80;;;27.85;;
67721;SDS011;58309;45.292;11.820;2022-11-21T06:25:44;53.72;;;27.25;;
67721;SDS011;58309;45.292;11.820;2022-11-21T06:28:10;54.20;;;28.75;;
67721;SDS011;58309;45.292;11.820;2022-11-21T06:30:36;57.10;;;29.75;;
67721;SDS011;58309;45.292;11.820;2022-11-21T06:33:02;53.97;;;29.58;;
67721;SDS011;58309;45.292;11.820;2022-11-21T06:35:29;53.70;;;29.52;;
67721;SDS011;58309;45.292;11.820;2022-11-21T06:37:55;54.53;;;28.25;;
67721;SDS011;58309;45.292;11.820;2022-11-21T06:40:22;52.42;;;26.45;;
67721;SDS011;58309;45.292;11.820;2022-11-21T06:42:48;51.28;;;27.92;;
67721;SDS011;58309;45.292;11.820;2022-11-21T06:45:13;56.97;;;30.77;;
67721;SDS011;58309;45.292;11.820;2022-11-21T06:47:40;61.03;;;32.10;;
67721;SDS011;58309;45.292;11.820;2022-11-21T06:50:06;57.10;;;31.33;;
67721;SDS011;58309;45.292;11.820;2022-11-21T06:52:32;59.95;;;32.22;;
67721;SDS011;58309;45.292;11.820;2022-11-21T06:54:59;65.72;;;33.78;;
67721;SDS011;58309;45.292;11.820;2022-11-21T06:57:24;68.32;;;34.28;;
67721;SDS011;58309;45.292;11.820;2022-11-21T06:59:50;65.15;;;33.25;;
67721;SDS011;58309;45.292;11.820;2022-11-21T07:02:15;62.97;;;32.40;;
67721;SDS011;58309;45.292;11.820;2022-11-21T07:04:40;59.53;;;32.22;;
67721;SDS011;58309;45.292;11.820;2022-11-21T07:07:06;65.93;;;32.55;;
67721;SDS011;58309;45.292;11.820;2022-11-21T07:09:32;68.68;;;35.15;;
67721;SDS011;58309;45.292;11.820;2022-11-21T07:11:59;67.38;;;36.40;;
67721;SDS011;58309;45.292;11.820;2022-11-21T07:14:45;55.78;;;31.33;;
67721;SDS011;58309;45.292;11.820;2022-11-21T07:17:11;54.75;;;31.35;;
67721;SDS011;58309;45.292;11.820;2022-11-21T07:19:37;58.17;;;30.77;;
67721;SDS011;58309;45.292;11.820;2022-11-21T07:22:02;56.22;;;30.92;;
67721;SDS011;58309;45.292;11.820;2022-11-21T07:24:28;53.40;;;29.75;;
67721;SDS011;58309;45.292;11.820;2022-11-21T07:26:53;47.25;;;30.20;;
67721;SDS011;58309;45.292;11.820;2022-11-21T07:29:19;54.35;;;30.35;;
67721;SDS011;58309;45.292;11.820;2022-11-21T07:31:44;49.40;;;28.25;;
67721;SDS011;58309;45.292;11.820;2022-11-21T07:34:10;46.13;;;26.70;;
67721;SDS011;58309;45.292;11.820;2022-11-21T07:36:35;38.10;;;24.60;;
67721;SDS011;58309;45.292;11.820;2022-11-21T07:39:01;37.67;;;24.10;;
67721;SDS011;58309;45.292;11.820;2022-11-21T07:41:26;41.58;;;27.15;;
67721;SDS011;58309;45.292;11.820;2022-11-21T07:43:52;41.83;;;26.05;;
67721;SDS011;58309;45.292;11.820;2022-11-21T07:46:18;41.40;;;25.17;;
67721;SDS011;58309;45.292;11.820;2022-11-21T07:48:43;42.08;;;26.13;;
67721;SDS011;58309;45.292;11.820;2022-11-21T07:51:09;39.85;;;24.60;;
67721;SDS011;58309;45.292;11.820;2022-11-21T07:53:35;42.25;;;23.42;;
67721;SDS011;58309;45.292;11.820;2022-11-21T07:56:00;39.60;;;23.33;;
67721;SDS011;58309;45.292;11.820;2022-11-21T07:58:26;39.80;;;22.75;;
67721;SDS011;58309;45.292;11.820;2022-11-21T08:00:51;34.35;;;21.95;;
67721;SDS011;58309;45.292;11.820;2022-11-21T08:03:17;36.00;;;19.98;;
67721;SDS011;58309;45.292;11.820;2022-11-21T08:05:43;27.77;;;18.38;;
67721;SDS011;58309;45.292;11.820;2022-11-21T08:08:10;28.52;;;17.85;;
67721;SDS011;58309;45.292;11.820;2022-11-21T08:10:37;23.20;;;15.45;;
67721;SDS011;58309;45.292;11.820;2022-11-21T08:13:03;23.23;;;15.13;;
67721;SDS011;58309;45.292;11.820;2022-11-21T08:15:29;22.95;;;14.70;;
67721;SDS011;58309;45.292;11.820;2022-11-21T08:17:54;24.58;;;15.15;;
67721;SDS011;58309;45.292;11.820;2022-11-21T08:20:20;20.25;;;14.55;;
67721;SDS011;58309;45.292;11.820;2022-11-21T08:22:50;22.38;;;15.60;;
67721;SDS011;58309;45.292;11.820;2022-11-21T08:25:16;23.88;;;15.35;;
67721;SDS011;58309;45.292;11.820;2022-11-21T08:27:41;20.70;;;15.23;;
67721;SDS011;58309;45.292;11.820;2022-11-21T08:30:08;23.45;;;16.00;;
67721;SDS011;58309;45.292;11.820;2022-11-21T08:32:35;23.50;;;17.38;;
67721;SDS011;58309;45.292;11.820;2022-11-21T08:35:00;25.42;;;17.30;;
67721;SDS011;58309;45.292;11.820;2022-11-21T08:37:26;24.45;;;18.00;;
67721;SDS011;58309;45.292;11.820;2022-11-21T08:39:53;20.80;;;16.30;;
67721;SDS011;58309;45.292;11.820;2022-11-21T08:42:19;23.10;;;16.67;;
67721;SDS011;58309;45.292;11.820;2022-11-21T08:44:44;21.85;;;16.23;;
67721;SDS011;58309;45.292;11.820;2022-11-21T08:47:10;24.00;;;16.35;;
67721;SDS011;58309;45.292;11.820;2022-11-21T08:49:35;21.92;;;16.42;;
67721;SDS011;58309;45.292;11.820;2022-11-21T08:52:01;23.10;;;15.90;;
67721;SDS011;58309;45.292;11.820;2022-11-21T08:54:26;20.58;;;15.43;;
67721;SDS011;58309;45.292;11.820;2022-11-21T08:56:52;19.48;;;15.07;;
67721;SDS011;58309;45.292;11.820;2022-11-21T08:59:17;20.67;;;15.05;;
67721;SDS011;58309;45.292;11.820;2022-11-21T09:01:42;25.33;;;16.48;;
67721;SDS011;58309;45.292;11.820;2022-11-21T09:04:08;20.65;;;16.05;;
67721;SDS011;58309;45.292;11.820;2022-11-21T09:06:35;20.15;;;16.33;;
67721;SDS011;58309;45.292;11.820;2022-11-21T09:09:00;21.30;;;16.27;;
67721;SDS011;58309;45.292;11.820;2022-11-21T09:11:26;22.60;;;16.48;;
67721;SDS011;58309;45.292;11.820;2022-11-21T09:13:52;18.17;;;15.38;;
67721;SDS011;58309;45.292;11.820;2022-11-21T09:16:36;21.90;;;16.35;;
67721;SDS011;58309;45.292;11.820;2022-11-21T09:19:21;18.67;;;15.63;;
67721;SDS011;58309;45.292;11.820;2022-11-21T09:21:50;19.95;;;16.02;;
67721;SDS011;58309;45.292;11.820;2022-11-21T09:24:16;19.73;;;15.75;;
67721;SDS011;58309;45.292;11.820;2022-11-21T09:26:41;19.90;;;15.80;;
67721;SDS011;58309;45.292;11.820;2022-11-21T09:29:07;23.05;;;17.25;;
67721;SDS011;58309;45.292;11.820;2022-11-21T09:31:38;21.63;;;15.90;;
67721;SDS011;58309;45.292;11.820;2022-11-21T09:34:03;23.27;;;15.90;;
67721;SDS011;58309;45.292;11.820;2022-11-21T09:36:29;19.38;;;16.17;;
67721;SDS011;58309;45.292;11.820;2022-11-21T09:38:55;21.42;;;16.85;;
67721;SDS011;58309;45.292;11.820;2022-11-21T09:49:45;19.50;;;15.88;;
67721;SDS011;58309;45.292;11.820;2022-11-21T09:52:16;22.13;;;17.48;;
67721;SDS011;58309;45.292;11.820;2022-11-21T09:54:49;22.48;;;15.18;;
67721;SDS011;58309;45.292;11.820;2022-11-21T09:57:17;22.15;;;16.17;;
67721;SDS011;58309;45.292;11.820;2022-11-21T09:59:47;19.92;;;15.85;;
67721;SDS011;58309;45.292;11.820;2022-11-21T10:02:15;20.10;;;17.00;;
67721;SDS011;58309;45.292;11.820;2022-11-21T10:04:42;20.92;;;16.13;;
67721;SDS011;58309;45.292;11.820;2022-11-21T10:22:35;26.98;;;17.35;;
67721;SDS011;58309;45.292;11.820;2022-11-21T10:27:45;21.95;;;18.17;;
67721;SDS011;58309;45.292;11.820;2022-11-21T10:30:24;22.10;;;16.98;;
67721;SDS011;58309;45.292;11.820;2022-11-21T10:32:51;22.58;;;17.63;;
67721;SDS011;58309;45.292;11.820;2022-11-21T10:35:21;23.27;;;17.25;;
67721;SDS011;58309;45.292;11.820;2022-11-21T10:37:54;23.13;;;16.80;;
67721;SDS011;58309;45.292;11.820;2022-11-21T10:43:45;24.70;;;17.55;;
67721;SDS011;58309;45.292;11.820;2022-11-21T10:46:32;22.75;;;17.25;;
67721;SDS011;58309;45.292;11.820;2022-11-21T10:48:58;23.88;;;17.42;;
67721;SDS011;58309;45.292;11.820;2022-11-21T10:51:41;24.73;;;17.95;;
67721;SDS011;58309;45.292;11.820;2022-11-21T10:54:14;28.48;;;18.73;;
67721;SDS011;58309;45.292;11.820;2022-11-21T10:57:14;26.10;;;19.08;;
67721;SDS011;58309;45.292;11.820;2022-11-21T11:00:11;24.67;;;18.00;;
67721;SDS011;58309;45.292;11.820;2022-11-21T11:02:39;29.73;;;20.17;;
67721;SDS011;58309;45.292;11.820;2022-11-21T11:07:57;28.63;;;19.63;;
67721;SDS011;58309;45.292;11.820;2022-11-21T11:10:26;25.08;;;19.67;;
67721;SDS011;58309;45.292;11.820;2022-11-21T11:12:52;29.65;;;20.27;;
67721;SDS011;58309;45.292;11.820;2022-11-21T11:15:38;29.15;;;19.73;;
67721;SDS011;58309;45.292;11.820;2022-11-21T11:18:18;28.38;;;19.48;;
67721;SDS011;58309;45.292;11.820;2022-11-21T11:20:47;28.38;;;20.80;;
67721;SDS011;58309;45.292;11.820;2022-11-21T11:25:47;29.08;;;21.08;;
67721;SDS011;58309;45.292;11.820;2022-11-21T11:28:14;29.38;;;21.48;;
67721;SDS011;58309;45.292;11.820;2022-11-21T11:30:40;34.35;;;21.70;;
67721;SDS011;58309;45.292;11.820;2022-11-21T11:35:54;33.30;;;22.73;;
67721;SDS011;58309;45.292;11.820;2022-11-21T11:38:29;29.98;;;22.25;;
67721;SDS011;58309;45.292;11.820;2022-11-21T11:40:57;32.63;;;21.50;;
67721;SDS011;58309;45.292;11.820;2022-11-21T11:51:55;34.28;;;22.52;;
67721;SDS011;58309;45.292;11.820;2022-11-21T11:54:28;29.23;;;21.33;;
67721;SDS011;58309;45.292;11.820;2022-11-21T11:56:58;32.67;;;21.48;;
67721;SDS011;58309;45.292;11.820;2022-11-21T11:59:34;36.15;;;22.48;;
67721;SDS011;58309;45.292;11.820;2022-11-21T12:05:05;32.75;;;23.42;;
67721;SDS011;58309;45.292;11.820;2022-11-21T12:07:43;34.08;;;22.00;;
67721;SDS011;58309;45.292;11.820;2022-11-21T12:10:17;31.77;;;21.35;;
67721;SDS011;58309;45.292;11.820;2022-11-21T12:13:05;31.58;;;21.45;;
67721;SDS011;58309;45.292;11.820;2022-11-21T12:15:40;28.45;;;20.98;;
67721;SDS011;58309;45.292;11.820;2022-11-21T12:23:24;33.10;;;21.83;;
67721;SDS011;58309;45.292;11.820;2022-11-21T12:28:22;34.53;;;23.42;;
67721;SDS011;58309;45.292;11.820;2022-11-21T12:30:58;36.38;;;23.98;;
67721;SDS011;58309;45.292;11.820;2022-11-21T12:33:34;37.25;;;23.67;;
67721;SDS011;58309;45.292;11.820;2022-11-21T12:36:12;33.78;;;23.25;;
67721;SDS011;58309;45.292;11.820;2022-11-21T12:38:48;36.45;;;23.33;;
67721;SDS011;58309;45.292;11.820;2022-11-21T12:41:35;35.97;;;23.10;;
67721;SDS011;58309;45.292;11.820;2022-11-21T12:44:30;43.08;;;23.67;;
67721;SDS011;58309;45.292;11.820;2022-11-21T12:50:02;40.30;;;25.13;;
67721;SDS011;58309;45.292;11.820;2022-11-21T12:53:45;37.85;;;23.77;;
67721;SDS011;58309;45.292;11.820;2022-11-21T12:56:28;35.50;;;22.40;;
67721;SDS011;58309;45.292;11.820;2022-11-21T12:59:02;35.78;;;23.33;;
67721;SDS011;58309;45.292;11.820;2022-11-21T13:04:03;37.92;;;23.77;;
67721;SDS011;58309;45.292;11.820;2022-11-21T13:06:40;36.63;;;23.73;;
67721;SDS011;58309;45.292;11.820;2022-11-21T13:09:12;41.47;;;24.52;;
67721;SDS011;58309;45.292;11.820;2022-11-21T13:25:08;41.42;;;24.85;;
67721;SDS011;58309;45.292;11.820;2022-11-21T13:27:41;42.58;;;23.92;;
67721;SDS011;58309;45.292;11.820;2022-11-21T13:37:57;36.17;;;23.33;;
67721;SDS011;58309;45.292;11.820;2022-11-21T13:45:49;37.08;;;24.65;;
67721;SDS011;58309;45.292;11.820;2022-11-21T13:57:11;47.25;;;25.15;;
67721;SDS011;58309;45.292;11.820;2022-11-21T14:07:45;40.92;;;25.88;;
67721;SDS011;58309;45.292;11.820;2022-11-21T14:12:49;43.65;;;26.40;;
67721;SDS011;58309;45.292;11.820;2022-11-21T14:17:56;40.42;;;26.10;;
67721;SDS011;58309;45.292;11.820;2022-11-21T14:20:27;41.05;;;26.25;;
67721;SDS011;58309;45.292;11.820;2022-11-21T14:22:56;44.13;;;26.40;;
67721;SDS011;58309;45.292;11.820;2022-11-21T14:25:34;42.53;;;26.20;;
67721;SDS011;58309;45.292;11.820;2022-11-21T14:28:26;42.47;;;25.38;;
67721;SDS011;58309;45.292;11.820;2022-11-21T14:33:32;40.58;;;25.20;;
67721;SDS011;58309;45.292;11.820;2022-11-21T14:43:49;47.13;;;26.83;;
67721;SDS011;58309;45.292;11.820;2022-11-21T14:46:28;43.75;;;26.90;;
67721;SDS011;58309;45.292;11.820;2022-11-21T14:48:53;44.10;;;27.15;;
67721;SDS011;58309;45.292;11.820;2022-11-21T14:51:22;44.72;;;27.58;;
67721;SDS011;58309;45.292;11.820;2022-11-21T14:53:48;48.85;;;28.17;;
67721;SDS011;58309;45.292;11.820;2022-11-21T14:56:24;47.75;;;28.35;;
67721;SDS011;58309;45.292;11.820;2022-11-21T14:58:52;50.10;;;27.33;;
67721;SDS011;58309;45.292;11.820;2022-11-21T15:01:20;43.40;;;27.17;;
67721;SDS011;58309;45.292;11.820;2022-11-21T15:06:20;52.80;;;30.67;;
67721;SDS011;58309;45.292;11.820;2022-11-21T15:08:45;51.97;;;30.15;;
67721;SDS011;58309;45.292;11.820;2022-11-21T15:11:11;53.70;;;30.40;;
67721;SDS011;58309;45.292;11.820;2022-11-21T15:13:39;45.50;;;29.38;;
67721;SDS011;58309;45.292;11.820;2022-11-21T15:16:07;51.10;;;30.88;;
67721;SDS011;58309;45.292;11.820;2022-11-21T15:18:33;59.30;;;33.28;;
67721;SDS011;58309;45.292;11.820;2022-11-21T15:21:00;57.33;;;31.70;;
67721;SDS011;58309;45.292;11.820;2022-11-21T15:23:29;54.70;;;31.23;;
67721;SDS011;58309;45.292;11.820;2022-11-21T15:25:59;54.47;;;31.67;;
67721;SDS011;58309;45.292;11.820;2022-11-21T15:28:25;57.92;;;31.60;;
67721;SDS011;58309;45.292;11.820;2022-11-21T15:33:52;59.53;;;33.55;;
67721;SDS011;58309;45.292;11.820;2022-11-21T15:36:25;60.80;;;35.30;;
67721;SDS011;58309;45.292;11.820;2022-11-21T15:39:04;60.20;;;34.65;;
67721;SDS011;58309;45.292;11.820;2022-11-21T15:46:32;73.35;;;38.80;;
67721;SDS011;58309;45.292;11.820;2022-11-21T15:49:11;73.10;;;39.33;;
67721;SDS011;58309;45.292;11.820;2022-11-21T15:54:03;75.30;;;39.55;;
67721;SDS011;58309;45.292;11.820;2022-11-21T15:56:30;70.18;;;39.83;;
67721;SDS011;58309;45.292;11.820;2022-11-21T15:58:55;79.20;;;41.50;;
67721;SDS011;58309;45.292;11.820;2022-11-21T16:01:22;80.50;;;40.83;;
67721;SDS011;58309;45.292;11.820;2022-11-21T16:03:49;88.32;;;44.70;;
67721;SDS011;58309;45.292;11.820;2022-11-21T16:06:17;82.38;;;41.70;;
67721;SDS011;58309;45.292;11.820;2022-11-21T16:08:43;82.13;;;42.65;;
67721;SDS011;58309;45.292;11.820;2022-11-21T16:13:52;87.20;;;43.90;;
67721;SDS011;58309;45.292;11.820;2022-11-21T16:16:29;105.07;;;50.10;;
67721;SDS011;58309;45.292;11.820;2022-11-21T16:18:56;92.38;;;46.83;;
67721;SDS011;58309;45.292;11.820;2022-11-21T16:21:22;91.15;;;46.97;;
67721;SDS011;58309;45.292;11.820;2022-11-21T16:23:48;85.18;;;44.53;;
67721;SDS011;58309;45.292;11.820;2022-11-21T16:26:14;79.88;;;42.13;;
67721;SDS011;58309;45.292;11.820;2022-11-21T16:28:40;81.68;;;43.10;;
67721;SDS011;58309;45.292;11.820;2022-11-21T16:31:06;75.45;;;40.42;;
67721;SDS011;58309;45.292;11.820;2022-11-21T16:33:41;79.38;;;40.25;;
67721;SDS011;58309;45.292;11.820;2022-11-21T16:36:07;84.45;;;40.20;;
67721;SDS011;58309;45.292;11.820;2022-11-21T16:38:32;82.50;;;42.17;;
67721;SDS011;58309;45.292;11.820;2022-11-21T16:40:58;88.15;;;42.10;;
67721;SDS011;58309;45.292;11.820;2022-11-21T16:43:25;86.18;;;44.83;;
67721;SDS011;58309;45.292;11.820;2022-11-21T16:45:52;82.45;;;43.65;;
67721;SDS011;58309;45.292;11.820;2022-11-21T16:48:19;87.43;;;44.15;;
67721;SDS011;58309;45.292;11.820;2022-11-21T16:50:46;94.03;;;45.75;;
67721;SDS011;58309;45.292;11.820;2022-11-21T16:53:12;100.60;;;49.25;;